sensor_id;sensor_type;location;lat;lon;timestamp;pressure;altitude;pressure_sealevel;temperature;humidity
9187;BME280;7273;48.902;9.410;2022-08-03T00:01:41;98066.09;;;20.02;51.48
9187;BME280;7273;48.902;9.410;2022-08-03T00:04:08;98063.88;;;19.96;51.64
9187;BME280;7273;48.902;9.410;2022-08-03T00:06:34;98064.38;;;19.98;51.61
9187;BME280;7273;48.902;9.410;2022-08-03T00:09:00;98064.22;;;19.94;51.69
9187;BME280;7273;48.902;9.410;2022-08-03T00:11:26;98067.88;;;19.98;51.64
9187;BME280;7273;48.902;9.410;2022-08-03T00:13:51;98062.63;;;19.93;51.65
9187;BME280;7273;48.902;9.410;2022-08-03T00:16:17;98065.03;;;19.95;51.66
9187;BME280;7273;48.902;9.410;2022-08-03T00:18:43;98065.59;;;19.88;51.80
9187;BME280;7273;48.902;9.410;2022-08-03T00:21:08;98067.03;;;19.86;51.86
9187;BME280;7273;48.902;9.410;2022-08-03T00:23:34;98064.16;;;19.82;51.91
9187;BME280;7273;48.902;9.410;2022-08-03T00:26:00;98057.41;;;19.80;51.98
9187;BME280;7273;48.902;9.410;2022-08-03T00:28:26;98059.56;;;19.74;52.28
9187;BME280;7273;48.902;9.410;2022-08-03T00:30:51;98050.41;;;19.70;52.35
9187;BME280;7273;48.902;9.410;2022-08-03T00:33:17;98053.34;;;19.65;52.44
9187;BME280;7273;48.902;9.410;2022-08-03T00:35:43;98050.47;;;19.62;52.38
9187;BME280;7273;48.902;9.410;2022-08-03T00:38:09;98047.59;;;19.58;52.56
9187;BME280;7273;48.902;9.410;2022-08-03T00:40:34;98050.66;;;19.57;52.72
9187;BME280;7273;48.902;9.410;2022-08-03T00:43:03;98056.63;;;19.59;52.72
9187;BME280;7273;48.902;9.410;2022-08-03T00:45:37;98046.19;;;19.52;53.09
9187;BME280;7273;48.902;9.410;2022-08-03T00:48:05;98053.13;;;19.50;52.94
9187;BME280;7273;48.902;9.410;2022-08-03T00:50:34;98062.38;;;19.45;53.05
9187;BME280;7273;48.902;9.410;2022-08-03T00:53:01;98049.59;;;19.49;52.76
9187;BME280;7273;48.902;9.410;2022-08-03T00:55:27;98053.00;;;19.46;52.89
9187;BME280;7273;48.902;9.410;2022-08-03T00:57:54;98055.59;;;19.43;52.95
9187;BME280;7273;48.902;9.410;2022-08-03T01:00:23;98055.00;;;19.37;53.15
9187;BME280;7273;48.902;9.410;2022-08-03T01:02:49;98052.81;;;19.31;53.15
9187;BME280;7273;48.902;9.410;2022-08-03T01:05:15;98056.34;;;19.31;53.17
9187;BME280;7273;48.902;9.410;2022-08-03T01:08:01;98051.47;;;19.28;54.53
9187;BME280;7273;48.902;9.410;2022-08-03T01:15:45;98054.19;;;19.37;53.00
9187;BME280;7273;48.902;9.410;2022-08-03T01:18:21;98048.13;;;19.31;53.44
9187;BME280;7273;48.902;9.410;2022-08-03T01:20:54;98041.81;;;19.31;53.31
9187;BME280;7273;48.902;9.410;2022-08-03T01:26:52;98041.19;;;19.25;54.62
9187;BME280;7273;48.902;9.410;2022-08-03T01:29:49;98033.47;;;19.19;54.64
9187;BME280;7273;48.902;9.410;2022-08-03T01:33:01;98030.59;;;19.15;53.43
9187;BME280;7273;48.902;9.410;2022-08-03T01:35:21;98035.63;;;19.13;54.51
9187;BME280;7273;48.902;9.410;2022-08-03T01:38:23;98031.13;;;19.09;55.43
9187;BME280;7273;48.902;9.410;2022-08-03T01:40:51;98032.41;;;19.11;53.50
9187;BME280;7273;48.902;9.410;2022-08-03T01:43:20;98031.47;;;19.07;53.71
9187;BME280;7273;48.902;9.410;2022-08-03T01:45:48;98022.44;;;19.07;53.58
9187;BME280;7273;48.902;9.410;2022-08-03T01:48:15;98025.72;;;19.00;53.67
9187;BME280;7273;48.902;9.410;2022-08-03T01:50:42;98028.75;;;18.99;53.88
9187;BME280;7273;48.902;9.410;2022-08-03T01:53:08;98030.09;;;18.93;53.95
9187;BME280;7273;48.902;9.410;2022-08-03T01:55:36;98020.13;;;18.88;54.24
9187;BME280;7273;48.902;9.410;2022-08-03T01:58:02;98023.22;;;18.87;54.10
9187;BME280;7273;48.902;9.410;2022-08-03T02:00:30;98016.56;;;18.88;54.09
9187;BME280;7273;48.902;9.410;2022-08-03T02:02:57;98018.06;;;18.85;54.11
9187;BME280;7273;48.902;9.410;2022-08-03T02:05:23;98013.69;;;18.84;54.15
9187;BME280;7273;48.902;9.410;2022-08-03T02:07:50;98019.47;;;18.91;53.96
9187;BME280;7273;48.902;9.410;2022-08-03T02:10:18;98015.81;;;18.87;54.33
9187;BME280;7273;48.902;9.410;2022-08-03T02:12:46;98008.53;;;18.83;54.35
9187;BME280;7273;48.902;9.410;2022-08-03T02:15:15;98004.34;;;18.85;54.41
9187;BME280;7273;48.902;9.410;2022-08-03T02:17:41;98012.56;;;18.85;54.17
9187;BME280;7273;48.902;9.410;2022-08-03T02:20:10;98006.44;;;18.88;54.33
9187;BME280;7273;48.902;9.410;2022-08-03T02:22:39;98012.91;;;18.84;54.59
9187;BME280;7273;48.902;9.410;2022-08-03T02:25:09;98021.31;;;18.79;54.76
9187;BME280;7273;48.902;9.410;2022-08-03T02:27:38;98019.56;;;18.74;54.95
9187;BME280;7273;48.902;9.410;2022-08-03T02:30:07;98017.47;;;18.71;54.89
9187;BME280;7273;48.902;9.410;2022-08-03T02:32:36;98020.88;;;18.68;54.80
9187;BME280;7273;48.902;9.410;2022-08-03T02:35:03;98013.97;;;18.62;55.09
9187;BME280;7273;48.902;9.410;2022-08-03T02:37:36;98011.75;;;18.55;55.54
9187;BME280;7273;48.902;9.410;2022-08-03T02:40:06;98013.09;;;18.49;55.36
9187;BME280;7273;48.902;9.410;2022-08-03T02:42:33;98011.47;;;18.40;59.59
9187;BME280;7273;48.902;9.410;2022-08-03T02:45:02;98013.91;;;18.41;55.52
9187;BME280;7273;48.902;9.410;2022-08-03T02:47:30;98008.25;;;18.38;55.50
9187;BME280;7273;48.902;9.410;2022-08-03T02:49:57;98008.91;;;18.35;55.44
9187;BME280;7273;48.902;9.410;2022-08-03T02:52:26;98016.63;;;18.41;55.34
9187;BME280;7273;48.902;9.410;2022-08-03T02:54:55;98006.16;;;18.43;55.39
9187;BME280;7273;48.902;9.410;2022-08-03T02:57:24;98006.31;;;18.38;55.30
9187;BME280;7273;48.902;9.410;2022-08-03T02:59:51;98007.16;;;18.39;55.28
9187;BME280;7273;48.902;9.410;2022-08-03T03:02:17;98003.41;;;18.35;55.26
9187;BME280;7273;48.902;9.410;2022-08-03T03:04:44;98004.25;;;18.27;55.49
9187;BME280;7273;48.902;9.410;2022-08-03T03:07:13;98002.66;;;18.26;55.47
9187;BME280;7273;48.902;9.410;2022-08-03T03:09:39;98007.03;;;18.18;55.70
9187;BME280;7273;48.902;9.410;2022-08-03T03:12:07;98007.47;;;18.29;55.57
9187;BME280;7273;48.902;9.410;2022-08-03T03:14:33;98007.66;;;18.24;55.57
9187;BME280;7273;48.902;9.410;2022-08-03T03:17:00;98009.13;;;18.21;55.68
9187;BME280;7273;48.902;9.410;2022-08-03T03:19:26;98008.78;;;18.23;55.55
9187;BME280;7273;48.902;9.410;2022-08-03T03:21:52;98009.13;;;18.21;55.71
9187;BME280;7273;48.902;9.410;2022-08-03T03:24:19;98010.56;;;18.19;55.71
9187;BME280;7273;48.902;9.410;2022-08-03T03:26:46;98005.75;;;18.16;55.99
9187;BME280;7273;48.902;9.410;2022-08-03T03:29:13;98000.28;;;18.16;55.80
9187;BME280;7273;48.902;9.410;2022-08-03T03:31:39;98004.94;;;18.15;55.97
9187;BME280;7273;48.902;9.410;2022-08-03T03:34:04;97999.47;;;18.15;55.91
9187;BME280;7273;48.902;9.410;2022-08-03T03:36:30;98004.16;;;18.15;55.87
9187;BME280;7273;48.902;9.410;2022-08-03T03:38:56;98003.66;;;18.13;55.98
9187;BME280;7273;48.902;9.410;2022-08-03T03:41:21;98005.25;;;18.14;56.13
9187;BME280;7273;48.902;9.410;2022-08-03T03:43:48;98004.47;;;18.13;56.13
9187;BME280;7273;48.902;9.410;2022-08-03T03:46:14;97998.38;;;18.08;56.24
9187;BME280;7273;48.902;9.410;2022-08-03T03:48:40;97995.63;;;18.08;56.26
9187;BME280;7273;48.902;9.410;2022-08-03T03:51:06;97999.97;;;18.09;56.28
9187;BME280;7273;48.902;9.410;2022-08-03T03:53:32;97995.97;;;18.06;56.31
9187;BME280;7273;48.902;9.410;2022-08-03T03:55:57;97998.38;;;18.08;56.35
9187;BME280;7273;48.902;9.410;2022-08-03T03:58:23;98004.50;;;18.05;56.28
9187;BME280;7273;48.902;9.410;2022-08-03T04:00:49;97994.22;;;18.02;56.52
9187;BME280;7273;48.902;9.410;2022-08-03T04:03:14;98002.09;;;18.03;56.49
9187;BME280;7273;48.902;9.410;2022-08-03T04:05:40;98003.34;;;18.06;56.55
9187;BME280;7273;48.902;9.410;2022-08-03T04:08:24;98002.59;;;17.97;56.72
9187;BME280;7273;48.902;9.410;2022-08-03T04:11:16;98007.25;;;17.96;57.11
9187;BME280;7273;48.902;9.410;2022-08-03T04:13:48;98003.19;;;18.02;56.94
9187;BME280;7273;48.902;9.410;2022-08-03T04:16:20;98002.75;;;18.00;56.74
9187;BME280;7273;48.902;9.410;2022-08-03T04:18:51;98008.34;;;18.04;56.68
9187;BME280;7273;48.902;9.410;2022-08-03T04:21:19;98008.06;;;17.97;56.69
9187;BME280;7273;48.902;9.410;2022-08-03T04:23:47;98008.06;;;18.05;56.67
9187;BME280;7273;48.902;9.410;2022-08-03T04:26:17;98003.84;;;18.08;56.67
9187;BME280;7273;48.902;9.410;2022-08-03T04:28:46;98007.56;;;18.03;56.72
9187;BME280;7273;48.902;9.410;2022-08-03T04:31:14;98007.06;;;18.10;56.63
9187;BME280;7273;48.902;9.410;2022-08-03T04:33:42;98013.53;;;18.05;56.93
9187;BME280;7273;48.902;9.410;2022-08-03T04:36:14;98010.13;;;18.08;57.06
9187;BME280;7273;48.902;9.410;2022-08-03T04:41:27;98013.31;;;18.10;56.73
9187;BME280;7273;48.902;9.410;2022-08-03T04:43:54;98013.81;;;18.12;56.66
9187;BME280;7273;48.902;9.410;2022-08-03T04:46:22;98014.78;;;18.16;56.42
9187;BME280;7273;48.902;9.410;2022-08-03T04:48:49;98019.25;;;18.21;56.66
9187;BME280;7273;48.902;9.410;2022-08-03T04:51:15;98019.25;;;18.21;56.65
9187;BME280;7273;48.902;9.410;2022-08-03T04:53:42;98030.38;;;18.24;56.67
9187;BME280;7273;48.902;9.410;2022-08-03T04:56:08;98032.13;;;18.29;56.59
9187;BME280;7273;48.902;9.410;2022-08-03T04:58:33;98028.41;;;18.33;56.74
9187;BME280;7273;48.902;9.410;2022-08-03T05:00:59;98028.88;;;18.35;56.67
9187;BME280;7273;48.902;9.410;2022-08-03T05:03:24;98026.94;;;18.36;56.69
9187;BME280;7273;48.902;9.410;2022-08-03T05:05:54;98027.28;;;18.43;57.03
9187;BME280;7273;48.902;9.410;2022-08-03T05:08:19;98025.47;;;18.47;56.76
9187;BME280;7273;48.902;9.410;2022-08-03T05:10:45;98023.03;;;18.54;56.63
9187;BME280;7273;48.902;9.410;2022-08-03T05:13:11;98028.34;;;18.59;56.72
9187;BME280;7273;48.902;9.410;2022-08-03T05:15:38;98024.28;;;18.65;56.49
9187;BME280;7273;48.902;9.410;2022-08-03T05:18:04;98028.91;;;18.73;56.54
9187;BME280;7273;48.902;9.410;2022-08-03T05:20:30;98038.69;;;18.83;56.57
9187;BME280;7273;48.902;9.410;2022-08-03T05:22:56;98033.16;;;18.91;56.55
9187;BME280;7273;48.902;9.410;2022-08-03T05:25:22;98043.44;;;19.03;56.29
9187;BME280;7273;48.902;9.410;2022-08-03T05:27:48;98046.72;;;19.17;56.13
9187;BME280;7273;48.902;9.410;2022-08-03T05:30:14;98036.16;;;19.27;56.11
9187;BME280;7273;48.902;9.410;2022-08-03T05:32:39;98047.59;;;19.38;55.86
9187;BME280;7273;48.902;9.410;2022-08-03T05:35:05;98045.72;;;19.50;55.92
9187;BME280;7273;48.902;9.410;2022-08-03T05:37:31;98038.34;;;19.63;55.85
9187;BME280;7273;48.902;9.410;2022-08-03T05:39:56;98043.09;;;19.74;55.87
9187;BME280;7273;48.902;9.410;2022-08-03T05:42:21;98041.09;;;19.83;55.87
9187;BME280;7273;48.902;9.410;2022-08-03T05:44:47;98044.00;;;19.99;55.75
9187;BME280;7273;48.902;9.410;2022-08-03T05:47:12;98040.97;;;20.13;55.44
9187;BME280;7273;48.902;9.410;2022-08-03T05:49:38;98041.56;;;20.18;55.63
9187;BME280;7273;48.902;9.410;2022-08-03T05:52:03;98040.47;;;20.31;55.35
9187;BME280;7273;48.902;9.410;2022-08-03T05:54:29;98035.44;;;20.45;55.10
9187;BME280;7273;48.902;9.410;2022-08-03T05:56:54;98029.16;;;20.57;55.04
9187;BME280;7273;48.902;9.410;2022-08-03T05:59:20;98041.09;;;20.73;54.75
9187;BME280;7273;48.902;9.410;2022-08-03T06:01:46;98039.13;;;20.85;54.75
9187;BME280;7273;48.902;9.410;2022-08-03T06:04:11;98042.50;;;21.03;54.67
9187;BME280;7273;48.902;9.410;2022-08-03T06:06:37;98041.78;;;21.18;54.71
9187;BME280;7273;48.902;9.410;2022-08-03T06:09:02;98034.00;;;21.32;54.33
9187;BME280;7273;48.902;9.410;2022-08-03T06:11:28;98037.50;;;21.45;54.14
9187;BME280;7273;48.902;9.410;2022-08-03T06:13:53;98029.13;;;21.53;54.29
9187;BME280;7273;48.902;9.410;2022-08-03T06:16:18;98037.09;;;21.70;54.08
9187;BME280;7273;48.902;9.410;2022-08-03T06:18:44;98035.59;;;21.85;53.92
9187;BME280;7273;48.902;9.410;2022-08-03T06:21:10;98041.38;;;21.95;53.84
9187;BME280;7273;48.902;9.410;2022-08-03T06:23:35;98034.63;;;22.20;53.59
9187;BME280;7273;48.902;9.410;2022-08-03T06:26:01;98034.88;;;22.58;53.09
9187;BME280;7273;48.902;9.410;2022-08-03T06:28:27;98042.69;;;22.88;52.85
9187;BME280;7273;48.902;9.410;2022-08-03T06:30:53;98048.19;;;23.19;52.62
9187;BME280;7273;48.902;9.410;2022-08-03T06:33:18;98046.38;;;23.42;52.44
9187;BME280;7273;48.902;9.410;2022-08-03T06:35:44;98045.88;;;23.55;52.59
9187;BME280;7273;48.902;9.410;2022-08-03T06:38:09;98054.19;;;23.74;52.50
9187;BME280;7273;48.902;9.410;2022-08-03T06:40:35;98048.31;;;23.95;52.49
9187;BME280;7273;48.902;9.410;2022-08-03T06:43:05;98048.34;;;24.14;52.35
9187;BME280;7273;48.902;9.410;2022-08-03T06:45:30;98044.25;;;24.27;52.36
9187;BME280;7273;48.902;9.410;2022-08-03T06:48:14;98048.56;;;24.47;53.14
9187;BME280;7273;48.902;9.410;2022-08-03T06:50:40;98052.50;;;24.46;52.30
9187;BME280;7273;48.902;9.410;2022-08-03T06:53:06;98056.56;;;24.52;52.42
9187;BME280;7273;48.902;9.410;2022-08-03T06:55:33;98047.13;;;24.53;52.41
9187;BME280;7273;48.902;9.410;2022-08-03T06:57:58;98046.81;;;24.58;52.61
9187;BME280;7273;48.902;9.410;2022-08-03T07:00:24;98059.34;;;24.75;52.44
9187;BME280;7273;48.902;9.410;2022-08-03T07:02:50;98054.94;;;24.93;52.16
9187;BME280;7273;48.902;9.410;2022-08-03T07:05:16;98057.50;;;25.05;52.30
9187;BME280;7273;48.902;9.410;2022-08-03T07:07:42;98056.47;;;24.90;52.79
9187;BME280;7273;48.902;9.410;2022-08-03T07:10:08;98050.69;;;24.99;52.68
9187;BME280;7273;48.902;9.410;2022-08-03T07:12:34;98060.78;;;25.10;52.43
9187;BME280;7273;48.902;9.410;2022-08-03T07:15:01;98054.59;;;25.21;52.31
9187;BME280;7273;48.902;9.410;2022-08-03T07:17:28;98055.00;;;25.23;52.41
9187;BME280;7273;48.902;9.410;2022-08-03T07:19:53;98051.59;;;25.33;52.60
9187;BME280;7273;48.902;9.410;2022-08-03T07:22:18;98056.91;;;25.41;52.10
9187;BME280;7273;48.902;9.410;2022-08-03T07:24:44;98047.91;;;25.48;52.35
9187;BME280;7273;48.902;9.410;2022-08-03T07:27:10;98047.81;;;25.70;51.67
9187;BME280;7273;48.902;9.410;2022-08-03T07:29:36;98043.34;;;25.92;51.12
9187;BME280;7273;48.902;9.410;2022-08-03T07:32:03;98041.06;;;25.97;51.46
9187;BME280;7273;48.902;9.410;2022-08-03T07:34:29;98052.75;;;26.13;51.32
9187;BME280;7273;48.902;9.410;2022-08-03T07:36:54;98049.50;;;26.41;50.80
9187;BME280;7273;48.902;9.410;2022-08-03T07:39:19;98045.97;;;26.44;50.89
9187;BME280;7273;48.902;9.410;2022-08-03T07:41:45;98043.47;;;26.69;50.54
9187;BME280;7273;48.902;9.410;2022-08-03T07:44:12;98051.84;;;26.72;50.60
9187;BME280;7273;48.902;9.410;2022-08-03T07:46:37;98045.97;;;26.81;50.69
9187;BME280;7273;48.902;9.410;2022-08-03T07:49:03;98043.00;;;27.07;49.97
9187;BME280;7273;48.902;9.410;2022-08-03T07:51:29;98044.66;;;27.15;49.94
9187;BME280;7273;48.902;9.410;2022-08-03T07:53:54;98044.41;;;27.30;49.56
9187;BME280;7273;48.902;9.410;2022-08-03T07:56:22;98047.25;;;27.41;49.66
9187;BME280;7273;48.902;9.410;2022-08-03T07:58:49;98048.19;;;27.62;49.38
9187;BME280;7273;48.902;9.410;2022-08-03T08:01:15;98045.88;;;27.75;49.36
9187;BME280;7273;48.902;9.410;2022-08-03T08:03:41;98039.53;;;27.82;49.20
9187;BME280;7273;48.902;9.410;2022-08-03T08:06:06;98036.09;;;27.99;48.87
9187;BME280;7273;48.902;9.410;2022-08-03T08:08:32;98042.88;;;28.12;48.67
9187;BME280;7273;48.902;9.410;2022-08-03T08:10:57;98046.09;;;28.24;48.37
9187;BME280;7273;48.902;9.410;2022-08-03T08:13:23;98035.78;;;28.32;48.28
9187;BME280;7273;48.902;9.410;2022-08-03T08:15:48;98038.19;;;28.44;47.94
9187;BME280;7273;48.902;9.410;2022-08-03T08:18:14;98037.84;;;28.52;48.01
9187;BME280;7273;48.902;9.410;2022-08-03T08:20:39;98045.84;;;28.71;47.70
9187;BME280;7273;48.902;9.410;2022-08-03T08:23:07;98044.25;;;28.74;47.63
9187;BME280;7273;48.902;9.410;2022-08-03T08:25:32;98043.06;;;28.89;47.35
9187;BME280;7273;48.902;9.410;2022-08-03T08:27:58;98043.06;;;28.96;47.11
9187;BME280;7273;48.902;9.410;2022-08-03T08:30:29;98045.88;;;29.17;46.90
9187;BME280;7273;48.902;9.410;2022-08-03T08:32:55;98044.69;;;29.22;46.74
9187;BME280;7273;48.902;9.410;2022-08-03T08:35:22;98036.72;;;29.31;46.65
9187;BME280;7273;48.902;9.410;2022-08-03T08:37:47;98037.88;;;29.40;46.54
9187;BME280;7273;48.902;9.410;2022-08-03T08:40:13;98033.91;;;29.45;46.42
9187;BME280;7273;48.902;9.410;2022-08-03T08:42:43;98033.06;;;29.58;45.93
9187;BME280;7273;48.902;9.410;2022-08-03T08:45:10;98042.25;;;29.62;46.15
9187;BME280;7273;48.902;9.410;2022-08-03T08:47:40;98038.66;;;29.69;45.60
9187;BME280;7273;48.902;9.410;2022-08-03T08:50:08;98037.03;;;29.75;45.87
9187;BME280;7273;48.902;9.410;2022-08-03T08:52:35;98035.41;;;29.91;45.48
9187;BME280;7273;48.902;9.410;2022-08-03T08:55:04;98039.34;;;29.97;45.55
9187;BME280;7273;48.902;9.410;2022-08-03T08:57:35;98030.56;;;30.02;45.25
9187;BME280;7273;48.902;9.410;2022-08-03T09:00:06;98032.09;;;30.14;45.21
9187;BME280;7273;48.902;9.410;2022-08-03T09:02:34;98028.91;;;30.23;45.11
9187;BME280;7273;48.902;9.410;2022-08-03T09:05:00;98040.06;;;30.26;44.94
9187;BME280;7273;48.902;9.410;2022-08-03T09:07:27;98032.47;;;30.27;44.92
9187;BME280;7273;48.902;9.410;2022-08-03T09:09:52;98031.59;;;30.44;44.62
9187;BME280;7273;48.902;9.410;2022-08-03T09:12:18;98035.91;;;30.55;44.15
9187;BME280;7273;48.902;9.410;2022-08-03T09:14:43;98034.63;;;30.67;44.08
9187;BME280;7273;48.902;9.410;2022-08-03T09:17:09;98033.97;;;30.45;44.46
9187;BME280;7273;48.902;9.410;2022-08-03T09:19:35;98033.06;;;30.66;44.39
9187;BME280;7273;48.902;9.410;2022-08-03T09:22:15;98031.81;;;30.70;42.71
9187;BME280;7273;48.902;9.410;2022-08-03T09:24:55;98022.50;;;30.91;41.59
9187;BME280;7273;48.902;9.410;2022-08-03T09:27:21;98023.66;;;30.97;43.22
9187;BME280;7273;48.902;9.410;2022-08-03T09:29:48;98026.28;;;31.18;43.24
9187;BME280;7273;48.902;9.410;2022-08-03T09:32:14;98030.63;;;31.22;43.28
9187;BME280;7273;48.902;9.410;2022-08-03T09:34:39;98027.91;;;31.12;43.30
9187;BME280;7273;48.902;9.410;2022-08-03T09:37:12;98034.53;;;31.28;41.57
9187;BME280;7273;48.902;9.410;2022-08-03T09:39:38;98025.75;;;31.33;38.66
9187;BME280;7273;48.902;9.410;2022-08-03T09:42:06;98027.59;;;31.51;42.73
9187;BME280;7273;48.902;9.410;2022-08-03T09:44:36;98029.97;;;31.52;42.93
9187;BME280;7273;48.902;9.410;2022-08-03T09:47:03;98028.22;;;31.65;42.51
9187;BME280;7273;48.902;9.410;2022-08-03T09:49:30;98022.25;;;31.63;42.64
9187;BME280;7273;48.902;9.410;2022-08-03T09:51:55;98018.59;;;31.66;42.34
9187;BME280;7273;48.902;9.410;2022-08-03T09:54:30;98023.50;;;31.59;40.92
9187;BME280;7273;48.902;9.410;2022-08-03T09:56:57;98016.56;;;31.70;42.53
9187;BME280;7273;48.902;9.410;2022-08-03T10:01:49;98020.28;;;31.97;42.16
9187;BME280;7273;48.902;9.410;2022-08-03T10:04:15;98023.44;;;31.99;42.17
9187;BME280;7273;48.902;9.410;2022-08-03T10:06:45;98014.16;;;32.06;41.08
9187;BME280;7273;48.902;9.410;2022-08-03T10:09:25;98009.34;;;32.10;41.41
9187;BME280;7273;48.902;9.410;2022-08-03T10:11:50;98010.38;;;31.89;41.91
9187;BME280;7273;48.902;9.410;2022-08-03T10:14:16;98009.25;;;32.13;41.73
9187;BME280;7273;48.902;9.410;2022-08-03T10:16:46;98005.47;;;32.27;41.25
9187;BME280;7273;48.902;9.410;2022-08-03T10:19:12;98011.41;;;32.32;41.30
9187;BME280;7273;48.902;9.410;2022-08-03T10:21:41;98001.72;;;32.40;41.05
9187;BME280;7273;48.902;9.410;2022-08-03T10:24:11;98000.47;;;32.45;40.66
9187;BME280;7273;48.902;9.410;2022-08-03T10:26:40;98000.03;;;32.46;40.67
9187;BME280;7273;48.902;9.410;2022-08-03T10:29:11;98001.88;;;32.56;39.89
9187;BME280;7273;48.902;9.410;2022-08-03T10:31:40;97991.16;;;32.51;40.15
9187;BME280;7273;48.902;9.410;2022-08-03T10:34:11;97999.03;;;32.60;39.89
9187;BME280;7273;48.902;9.410;2022-08-03T10:36:42;97993.47;;;32.56;40.17
9187;BME280;7273;48.902;9.410;2022-08-03T10:39:09;97987.06;;;32.56;40.18
9187;BME280;7273;48.902;9.410;2022-08-03T10:41:39;97982.16;;;32.63;39.72
9187;BME280;7273;48.902;9.410;2022-08-03T10:44:08;97983.22;;;32.73;39.69
9187;BME280;7273;48.902;9.410;2022-08-03T10:46:35;97982.75;;;32.78;39.86
9187;BME280;7273;48.902;9.410;2022-08-03T10:49:03;97979.88;;;32.82;39.59
9187;BME280;7273;48.902;9.410;2022-08-03T10:51:30;97983.41;;;32.86;39.15
9187;BME280;7273;48.902;9.410;2022-08-03T10:53:58;97978.69;;;32.79;39.19
9187;BME280;7273;48.902;9.410;2022-08-03T10:59:17;97971.06;;;33.29;38.98
9187;BME280;7273;48.902;9.410;2022-08-03T11:01:54;97977.94;;;33.25;38.07
9187;BME280;7273;48.902;9.410;2022-08-03T11:04:20;97965.72;;;33.35;38.89
9187;BME280;7273;48.902;9.410;2022-08-03T11:07:18;97975.81;;;33.55;36.67
9187;BME280;7273;48.902;9.410;2022-08-03T11:09:46;97969.03;;;34.12;38.22
9187;BME280;7273;48.902;9.410;2022-08-03T11:14:53;97963.91;;;34.78;37.57
9187;BME280;7273;48.902;9.410;2022-08-03T11:17:19;97966.88;;;35.19;37.43
9187;BME280;7273;48.902;9.410;2022-08-03T11:19:49;97963.16;;;35.95;36.17
9187;BME280;7273;48.902;9.410;2022-08-03T11:22:16;97964.25;;;36.39;36.47
9187;BME280;7273;48.902;9.410;2022-08-03T11:27:35;97959.94;;;38.00;33.12
9187;BME280;7273;48.902;9.410;2022-08-03T11:40:46;97963.34;;;41.23;29.02
9187;BME280;7273;48.902;9.410;2022-08-03T11:48:40;97977.56;;;42.38;29.98
9187;BME280;7273;48.902;9.410;2022-08-03T11:51:30;97965.56;;;43.32;27.55
9187;BME280;7273;48.902;9.410;2022-08-03T11:53:58;97966.38;;;42.34;32.68
9187;BME280;7273;48.902;9.410;2022-08-03T11:56:25;97961.31;;;42.73;32.51
9187;BME280;7273;48.902;9.410;2022-08-03T11:58:55;97950.41;;;43.41;31.00
9187;BME280;7273;48.902;9.410;2022-08-03T12:01:22;97952.81;;;43.68;31.38
9187;BME280;7273;48.902;9.410;2022-08-03T12:03:49;97939.47;;;42.50;32.66
9187;BME280;7273;48.902;9.410;2022-08-03T12:06:16;97946.25;;;43.22;31.42
9187;BME280;7273;48.902;9.410;2022-08-03T12:08:43;97952.91;;;43.99;30.41
9187;BME280;7273;48.902;9.410;2022-08-03T12:11:09;97949.91;;;43.88;25.04
9187;BME280;7273;48.902;9.410;2022-08-03T12:13:45;97937.06;;;43.32;21.52
9187;BME280;7273;48.902;9.410;2022-08-03T12:16:19;97950.03;;;44.25;29.05
9187;BME280;7273;48.902;9.410;2022-08-03T12:18:53;97938.66;;;43.99;28.79
9187;BME280;7273;48.902;9.410;2022-08-03T12:21:19;97951.94;;;44.64;29.99
9187;BME280;7273;48.902;9.410;2022-08-03T12:23:48;97943.44;;;43.88;30.86
9187;BME280;7273;48.902;9.410;2022-08-03T12:26:13;97943.84;;;44.01;30.14
9187;BME280;7273;48.902;9.410;2022-08-03T12:28:46;97937.63;;;43.76;28.67
9187;BME280;7273;48.902;9.410;2022-08-03T12:31:12;97939.56;;;42.26;32.18
9187;BME280;7273;48.902;9.410;2022-08-03T12:33:54;97935.25;;;41.49;29.14
9187;BME280;7273;48.902;9.410;2022-08-03T12:36:20;97938.38;;;41.51;32.59
9187;BME280;7273;48.902;9.410;2022-08-03T12:38:54;97928.00;;;42.44;29.26
9187;BME280;7273;48.902;9.410;2022-08-03T12:41:33;97928.91;;;42.36;30.06
9187;BME280;7273;48.902;9.410;2022-08-03T12:44:00;97931.78;;;41.83;32.59
9187;BME280;7273;48.902;9.410;2022-08-03T12:49:12;97926.19;;;40.05;30.57
9187;BME280;7273;48.902;9.410;2022-08-03T12:54:14;97910.31;;;39.36;32.32
9187;BME280;7273;48.902;9.410;2022-08-03T12:57:02;97920.22;;;39.22;28.55
9187;BME280;7273;48.902;9.410;2022-08-03T12:59:33;97914.53;;;39.04;30.32
9187;BME280;7273;48.902;9.410;2022-08-03T13:02:00;97906.28;;;38.70;31.15
9187;BME280;7273;48.902;9.410;2022-08-03T13:04:34;97911.75;;;38.25;30.11
9187;BME280;7273;48.902;9.410;2022-08-03T13:07:02;97902.94;;;37.92;31.42
9187;BME280;7273;48.902;9.410;2022-08-03T13:09:29;97900.63;;;37.78;30.97
9187;BME280;7273;48.902;9.410;2022-08-03T13:12:11;97904.75;;;37.09;28.14
9187;BME280;7273;48.902;9.410;2022-08-03T13:14:36;97902.19;;;37.02;30.91
9187;BME280;7273;48.902;9.410;2022-08-03T13:17:03;97904.72;;;36.75;30.59
9187;BME280;7273;48.902;9.410;2022-08-03T13:19:30;97898.75;;;36.60;30.45
9187;BME280;7273;48.902;9.410;2022-08-03T13:21:55;97889.50;;;36.09;28.75
9187;BME280;7273;48.902;9.410;2022-08-03T13:24:21;97894.00;;;36.19;31.00
9187;BME280;7273;48.902;9.410;2022-08-03T13:26:46;97896.38;;;35.96;31.10
9187;BME280;7273;48.902;9.410;2022-08-03T13:29:12;97890.28;;;36.10;30.96
9187;BME280;7273;48.902;9.410;2022-08-03T13:31:37;97883.09;;;36.09;31.00
9187;BME280;7273;48.902;9.410;2022-08-03T13:34:02;97886.00;;;36.05;30.86
9187;BME280;7273;48.902;9.410;2022-08-03T13:36:28;97890.06;;;36.17;30.57
9187;BME280;7273;48.902;9.410;2022-08-03T13:38:54;97886.66;;;35.97;30.63
9187;BME280;7273;48.902;9.410;2022-08-03T13:41:20;97886.88;;;35.90;30.49
9187;BME280;7273;48.902;9.410;2022-08-03T13:43:46;97882.63;;;35.98;30.31
9187;BME280;7273;48.902;9.410;2022-08-03T13:46:11;97874.91;;;35.73;30.06
9187;BME280;7273;48.902;9.410;2022-08-03T13:48:36;97874.78;;;35.07;30.59
9187;BME280;7273;48.902;9.410;2022-08-03T13:51:02;97873.13;;;35.38;29.91
9187;BME280;7273;48.902;9.410;2022-08-03T13:53:27;97871.13;;;35.51;29.40
9187;BME280;7273;48.902;9.410;2022-08-03T13:55:53;97868.97;;;35.14;29.64
9187;BME280;7273;48.902;9.410;2022-08-03T13:58:18;97870.81;;;34.88;29.89
9187;BME280;7273;48.902;9.410;2022-08-03T14:00:43;97861.59;;;35.04;29.42
9187;BME280;7273;48.902;9.410;2022-08-03T14:03:09;97861.22;;;34.73;29.75
9187;BME280;7273;48.902;9.410;2022-08-03T14:05:35;97868.53;;;34.83;29.55
9187;BME280;7273;48.902;9.410;2022-08-03T14:08:03;97863.81;;;34.96;29.23
9187;BME280;7273;48.902;9.410;2022-08-03T14:10:42;97849.66;;;34.84;29.06